This is the latest recevied weather packets stored in our database for station/object DL6JOE-10. If no packets are shown the sender has not sent any weather packets the latest 10 day(s).
| Time | Temp. | Humidity | Pressure | Rain* | Wind** | Luminosity | Snow |
|---|---|---|---|---|---|---|---|
| 1788145958 | 20° C | 62% | 962.4 hPa | - | - | - | - |
| 1788145057 | 20° C | 61% | 962.5 hPa | - | - | - | - |
| 1788144157 | 20° C | 61% | 962.5 hPa | - | - | - | - |
| 1788143257 | 20° C | 61% | 962.7 hPa | - | - | - | - |
| 1788142357 | 20° C | 61% | 962.8 hPa | - | - | - | - |
| 1788141457 | 20.56° C | 59% | 962.8 hPa | - | - | - | - |
| 1788123455 | 24.44° C | 48% | 962.2 hPa | - | - | - | - |
| 1788121655 | 25° C | 47% | 962.4 hPa | - | - | - | - |
| 1788120755 | 25° C | 47% | 962.3 hPa | - | - | - | - |
| 1788119855 | 25.56° C | 46% | 962.2 hPa | - | - | - | - |
| 1788118955 | 26.11° C | 46% | 962.4 hPa | - | - | - | - |
| 1788118055 | 26.11° C | 46% | 962.3 hPa | - | - | - | - |
| 1788117154 | 26.67° C | 46% | 962.3 hPa | - | - | - | - |
| 1788114454 | 27.78° C | 43% | 962.1 hPa | - | - | - | - |
| 1788113554 | 28.33° C | 43% | 962.2 hPa | - | - | - | - |
| 1788112654 | 28.89° C | 42% | 962.1 hPa | - | - | - | - |
| 1788110854 | 29.44° C | 40% | 961.9 hPa | - | - | - | - |
| 1788109954 | 30° C | 40% | 961.9 hPa | - | - | - | - |
| 1788109054 | 30° C | 41% | 961.8 hPa | - | - | - | - |
| 1788108154 | 30° C | 40% | 961.8 hPa | - | - | - | - |
| 1788107253 | 30° C | 40% | 961.7 hPa | - | - | - | - |
| 1788106353 | 30.56° C | 40% | 961.8 hPa | - | - | - | - |
| 1788105453 | 31.11° C | 38% | 961.7 hPa | - | - | - | - |
| 1788104553 | 31.67° C | 37% | 961.7 hPa | - | - | - | - |
| 1788103653 | 31.67° C | 37% | 961.6 hPa | - | - | - | - |
* Rain since midnight (hover to see other rain measurements)
** Current wind speed in m/s (hover to see current wind gust speed)